Time;durP1;ratioP1;P1;durP2;ratioP2;P2;SDS_P1;SDS_P2;PMS_P1;PMS_P2;Temp;Humidity;BMP_temperature;BMP_pressure;BME280_temperature;BME280_humidity;BME280_pressure;Samples;Min_cycle;Max_cycle;Signal;HPM_P1;HPM_P2
2021/12/31 00:02:18;;;;;;;20.53;19.53;;;;;;;;;;4974263;28;20456;-86
2021/12/31 00:04:45;;;;;;;19.40;18.40;;;;;;;;;;4975452;28;20426;-87
2021/12/31 00:07:13;;;;;;;21.73;20.63;;;;;;;;;;4974915;28;20425;-87
2021/12/31 00:09:40;;;;;;;21.83;20.70;;;;;;;;;;4974906;28;20545;-87
2021/12/31 00:12:08;;;;;;;21.33;19.90;;;;;;;;;;4975179;28;20453;-87
2021/12/31 00:14:36;;;;;;;25.47;23.80;;;;;;;;;;4975278;28;20482;-87
2021/12/31 00:17:03;;;;;;;23.20;21.90;;;;;;;;;;4974845;28;20433;-87
2021/12/31 00:19:37;;;;;;;25.73;23.60;;;;;;;;;;4977160;28;20438;-87
2021/12/31 00:22:24;;;;;;;25.60;24.20;;;;;;;;;;4959718;28;20483;-87
2021/12/31 00:24:52;;;;;;;25.13;23.70;;;;;;;;;;4976349;28;20425;-88
2021/12/31 00:27:19;;;;;;;26.73;25.03;;;;;;;;;;4978019;28;20446;-87
2021/12/31 00:29:47;;;;;;;25.03;23.53;;;;;;;;;;4959464;28;20412;-87
2021/12/31 00:32:14;;;;;;;27.50;25.70;;;;;;;;;;4975676;28;20448;-87
2021/12/31 00:34:43;;;;;;;23.80;22.40;;;;;;;;;;4977057;28;20927;-87
2021/12/31 00:37:10;;;;;;;26.63;24.67;;;;;;;;;;4976540;28;20546;-87
2021/12/31 00:39:37;;;;;;;25.33;23.60;;;;;;;;;;4976949;28;20468;-87
2021/12/31 00:42:05;;;;;;;26.27;24.57;;;;;;;;;;4977085;28;20425;-86
2021/12/31 00:44:32;;;;;;;41.50;39.53;;;;;;;;;;4975635;28;20440;-87
2021/12/31 00:46:59;;;;;;;85.80;81.20;;;;;;;;;;4975041;28;20446;-87
2021/12/31 00:49:27;;;;;;;42.20;39.97;;;;;;;;;;4974460;28;20478;-86
2021/12/31 00:51:56;;;;;;;249.43;221.43;;;;;;;;;;4974537;28;20406;-87
2021/12/31 00:54:23;;;;;;;280.03;252.90;;;;;;;;;;4957099;28;20459;-87
2021/12/31 00:56:50;;;;;;;312.97;279.73;;;;;;;;;;4974652;28;20478;-87
2021/12/31 00:59:18;;;;;;;291.13;218.90;;;;;;;;;;4974822;28;20449;-87
2021/12/31 01:01:45;;;;;;;376.60;267.40;;;;;;;;;;4974723;28;20448;-87
2021/12/31 01:04:12;;;;;;;302.60;263.93;;;;;;;;;;4957406;28;20513;-87
2021/12/31 01:06:40;;;;;;;153.23;144.23;;;;;;;;;;4974751;28;20446;-87
2021/12/31 01:09:08;;;;;;;46.50;43.90;;;;;;;;;;4975080;28;20903;-87
2021/12/31 01:11:36;;;;;;;21.00;19.40;;;;;;;;;;4974816;28;20443;-87
2021/12/31 01:14:08;;;;;;;21.77;20.43;;;;;;;;;;4978710;28;21040;-87
2021/12/31 01:16:39;;;;;;;20.77;19.40;;;;;;;;;;4979301;28;20427;-87
2021/12/31 01:21:54;;;;;;;20.00;19.00;;;;;;;;;;4982464;28;20505;-87
2021/12/31 01:24:32;;;;;;;20.63;19.43;;;;;;;;;;4979908;28;20409;-86
2021/12/31 01:26:59;;;;;;;20.77;19.30;;;;;;;;;;4981279;28;20806;-85
2021/12/31 01:29:27;;;;;;;20.40;19.00;;;;;;;;;;4965194;28;20435;-87
2021/12/31 01:31:55;;;;;;;19.80;18.70;;;;;;;;;;4982011;28;20429;-87
2021/12/31 01:34:24;;;;;;;20.50;19.23;;;;;;;;;;4979777;28;20497;-87
2021/12/31 01:36:51;;;;;;;20.27;19.17;;;;;;;;;;4979292;28;20464;-87
2021/12/31 01:39:19;;;;;;;21.50;20.23;;;;;;;;;;4983469;28;20432;-86
2021/12/31 01:41:48;;;;;;;20.10;18.90;;;;;;;;;;4984854;28;20774;-86
2021/12/31 01:44:15;;;;;;;20.97;19.70;;;;;;;;;;4979330;28;20868;-87
2021/12/31 01:47:22;;;;;;;23.37;21.90;;;;;;;;;;4979434;28;20413;-87
2021/12/31 01:49:56;;;;;;;21.60;20.10;;;;;;;;;;4979511;28;20490;-88
2021/12/31 01:52:24;;;;;;;179.10;169.17;;;;;;;;;;4978687;28;20503;-86
2021/12/31 01:54:52;;;;;;;404.17;270.42;;;;;;;;;;4978626;28;20443;-87
2021/12/31 01:57:22;;;;;;;21.23;19.93;;;;;;;;;;4978383;28;20252;-87
2021/12/31 01:59:50;;;;;;;21.40;20.20;;;;;;;;;;4977714;28;20409;-87
2021/12/31 02:02:17;;;;;;;20.67;19.47;;;;;;;;;;4978157;28;20417;-87
2021/12/31 02:04:45;;;;;;;21.27;20.07;;;;;;;;;;4978126;28;20990;-87
2021/12/31 02:07:12;;;;;;;20.73;19.30;;;;;;;;;;4978580;28;20897;-87
2021/12/31 02:09:43;;;;;;;98.40;93.40;;;;;;;;;;4984751;28;20417;-87
2021/12/31 02:12:11;;;;;;;427.30;274.55;;;;;;;;;;4985143;28;20448;-86
2021/12/31 02:14:42;;;;;;;256.87;230.47;;;;;;;;;;4983837;28;20234;-88
2021/12/31 02:17:10;;;;;;;286.50;216.40;;;;;;;;;;4983986;28;20445;-86
2021/12/31 02:19:38;;;;;;;378.60;272.38;;;;;;;;;;4977975;28;20917;-88
2021/12/31 02:22:09;;;;;;;265.00;193.10;;;;;;;;;;4976830;28;20284;-87
2021/12/31 02:24:37;;;;;;;19.07;17.93;;;;;;;;;;4981081;28;20965;-86
2021/12/31 02:27:04;;;;;;;19.37;18.30;;;;;;;;;;4961865;28;20462;-87
2021/12/31 02:29:32;;;;;;;20.50;18.90;;;;;;;;;;4978994;28;20462;-87
2021/12/31 02:32:00;;;;;;;19.27;18.13;;;;;;;;;;4977300;28;20411;-87
2021/12/31 02:34:27;;;;;;;20.30;18.80;;;;;;;;;;4978293;28;20876;-87
2021/12/31 02:36:54;;;;;;;20.47;19.17;;;;;;;;;;4978546;28;20488;-87
2021/12/31 02:39:23;;;;;;;21.00;19.60;;;;;;;;;;4961227;28;20457;-87
2021/12/31 02:41:51;;;;;;;20.23;18.60;;;;;;;;;;4976465;28;20444;-88
2021/12/31 02:44:18;;;;;;;18.77;17.77;;;;;;;;;;4978809;28;20496;-87
2021/12/31 02:46:45;;;;;;;18.23;16.80;;;;;;;;;;4977604;28;20417;-87
2021/12/31 02:49:13;;;;;;;18.77;17.40;;;;;;;;;;4961019;28;20489;-87
2021/12/31 02:51:40;;;;;;;102.67;96.97;;;;;;;;;;4978060;28;20447;-87
2021/12/31 02:54:09;;;;;;;335.58;234.65;;;;;;;;;;4977443;28;20490;-87
2021/12/31 02:56:37;;;;;;;403.48;289.92;;;;;;;;;;4985682;28;20223;-86
2021/12/31 02:59:05;;;;;;;445.67;262.13;;;;;;;;;;4960416;28;20203;-87
2021/12/31 03:01:32;;;;;;;365.27;245.43;;;;;;;;;;4977700;28;20204;-87
2021/12/31 03:04:01;;;;;;;18.83;17.77;;;;;;;;;;4982117;28;20203;-87
2021/12/31 03:06:29;;;;;;;19.50;18.30;;;;;;;;;;4977503;28;20441;-87
2021/12/31 03:08:58;;;;;;;18.67;17.60;;;;;;;;;;4978018;28;20524;-86
2021/12/31 03:11:25;;;;;;;19.03;18.03;;;;;;;;;;4977190;28;20439;-87
2021/12/31 03:13:56;;;;;;;19.60;18.30;;;;;;;;;;4978022;28;20501;-87
2021/12/31 03:16:23;;;;;;;19.33;18.07;;;;;;;;;;4977206;28;20421;-85
2021/12/31 03:18:52;;;;;;;18.47;17.57;;;;;;;;;;4977787;28;20444;-86
2021/12/31 03:21:22;;;;;;;19.03;17.70;;;;;;;;;;4975933;28;20438;-86
2021/12/31 03:23:52;;;;;;;19.20;18.00;;;;;;;;;;4960545;28;20948;-85
2021/12/31 03:26:20;;;;;;;20.27;18.77;;;;;;;;;;4979968;28;20515;-87
2021/12/31 03:28:47;;;;;;;18.57;17.00;;;;;;;;;;4976116;28;20429;-87
2021/12/31 03:31:16;;;;;;;18.00;17.20;;;;;;;;;;4976059;28;20793;-86
2021/12/31 03:33:44;;;;;;;19.37;18.33;;;;;;;;;;4977055;28;20489;-87
2021/12/31 03:36:11;;;;;;;18.50;17.60;;;;;;;;;;4978892;28;20413;-87
2021/12/31 03:38:39;;;;;;;19.40;18.27;;;;;;;;;;4978258;28;20425;-87
2021/12/31 03:41:06;;;;;;;19.07;18.07;;;;;;;;;;4978503;28;20917;-87
2021/12/31 03:43:34;;;;;;;19.53;18.23;;;;;;;;;;4978609;28;20417;-87
2021/12/31 03:46:02;;;;;;;18.87;17.87;;;;;;;;;;4978790;28;20443;-87
2021/12/31 03:48:32;;;;;;;19.03;18.00;;;;;;;;;;4961176;28;20490;-87
2021/12/31 03:50:59;;;;;;;18.90;17.90;;;;;;;;;;4979168;28;20441;-86
2021/12/31 03:53:28;;;;;;;19.97;18.97;;;;;;;;;;4979135;28;20511;-87
2021/12/31 03:55:55;;;;;;;19.30;18.20;;;;;;;;;;4978989;28;20416;-86
2021/12/31 03:58:23;;;;;;;18.73;17.83;;;;;;;;;;4978422;28;20453;-87
2021/12/31 04:00:50;;;;;;;18.30;17.40;;;;;;;;;;4978118;28;20413;-87
2021/12/31 04:03:18;;;;;;;18.60;17.60;;;;;;;;;;4978863;28;20486;-87
2021/12/31 04:05:49;;;;;;;19.10;17.70;;;;;;;;;;4978139;28;20477;-87
2021/12/31 04:08:17;;;;;;;18.73;17.73;;;;;;;;;;4978052;28;20420;-87
2021/12/31 04:10:44;;;;;;;18.23;17.30;;;;;;;;;;4979620;28;20476;-87
2021/12/31 04:13:12;;;;;;;18.20;17.17;;;;;;;;;;4978509;28;20431;-87
2021/12/31 04:15:40;;;;;;;19.23;18.03;;;;;;;;;;4980006;28;20441;-87
2021/12/31 04:18:07;;;;;;;18.60;17.50;;;;;;;;;;4978460;28;20405;-87
2021/12/31 04:20:36;;;;;;;19.00;17.63;;;;;;;;;;4978652;28;20458;-86
2021/12/31 04:23:08;;;;;;;18.23;17.23;;;;;;;;;;4982284;28;20449;-87
2021/12/31 04:25:48;;;;;;;19.70;18.43;;;;;;;;;;4978527;28;20453;-87
2021/12/31 04:28:16;;;;;;;18.53;17.43;;;;;;;;;;4980309;28;20439;-87
2021/12/31 04:30:46;;;;;;;18.60;17.57;;;;;;;;;;4978418;28;20962;-86
2021/12/31 04:33:14;;;;;;;341.83;220.50;;;;;;;;;;4979192;28;21046;-87
2021/12/31 04:35:41;;;;;;;304.13;267.10;;;;;;;;;;4961983;28;20270;-86
2021/12/31 04:38:10;;;;;;;18.07;17.07;;;;;;;;;;4978851;28;20447;-87
2021/12/31 04:40:41;;;;;;;18.67;17.57;;;;;;;;;;4976333;28;20494;-87
2021/12/31 04:43:08;;;;;;;18.63;17.60;;;;;;;;;;4961451;28;20425;-87
2021/12/31 04:45:36;;;;;;;18.37;17.30;;;;;;;;;;4978701;28;20454;-86
2021/12/31 04:48:03;;;;;;;18.87;17.53;;;;;;;;;;4978802;28;20490;-87
2021/12/31 04:50:31;;;;;;;18.97;17.77;;;;;;;;;;4983109;28;20956;-87
2021/12/31 04:52:58;;;;;;;18.60;17.20;;;;;;;;;;4984320;28;20817;-87
2021/12/31 04:55:29;;;;;;;19.10;17.90;;;;;;;;;;4986002;28;20516;-87
2021/12/31 04:57:56;;;;;;;17.77;16.90;;;;;;;;;;4983373;28;20482;-87
2021/12/31 05:00:24;;;;;;;19.27;18.00;;;;;;;;;;4982230;28;20452;-86
2021/12/31 05:02:51;;;;;;;18.93;17.80;;;;;;;;;;4981576;28;20446;-87
2021/12/31 05:05:20;;;;;;;19.23;18.00;;;;;;;;;;4983100;28;20420;-87
2021/12/31 05:07:47;;;;;;;18.20;17.20;;;;;;;;;;4980175;28;20429;-87
2021/12/31 05:10:18;;;;;;;17.63;16.63;;;;;;;;;;4980177;28;20425;-86
2021/12/31 05:12:52;;;;;;;18.20;17.10;;;;;;;;;;4981608;28;20421;-87
2021/12/31 05:15:26;;;;;;;18.60;17.60;;;;;;;;;;4980301;28;20553;-87
2021/12/31 05:17:53;;;;;;;18.07;17.07;;;;;;;;;;4979845;28;20501;-87
2021/12/31 05:20:23;;;;;;;18.97;17.97;;;;;;;;;;4983216;28;20448;-83
2021/12/31 05:22:53;;;;;;;18.00;17.00;;;;;;;;;;4985591;28;20847;-86
2021/12/31 05:25:22;;;;;;;18.33;17.13;;;;;;;;;;4980879;28;20471;-87
2021/12/31 05:27:51;;;;;;;18.67;17.30;;;;;;;;;;4981899;28;20789;-86
2021/12/31 05:30:19;;;;;;;18.40;17.40;;;;;;;;;;4978329;28;20434;-86
2021/12/31 05:32:47;;;;;;;123.97;116.53;;;;;;;;;;4961858;28;20425;-87
2021/12/31 05:35:14;;;;;;;18.67;17.67;;;;;;;;;;4964572;28;20495;-86
2021/12/31 05:37:42;;;;;;;18.50;17.50;;;;;;;;;;4980707;28;20442;-87
2021/12/31 05:40:10;;;;;;;394.00;277.97;;;;;;;;;;4981589;28;20464;-86
2021/12/31 05:42:37;;;;;;;389.05;244.25;;;;;;;;;;4981580;28;20435;-87
2021/12/31 05:45:09;;;;;;;277.80;252.90;;;;;;;;;;4981497;28;20231;-87
2021/12/31 05:47:37;;;;;;;255.47;236.13;;;;;;;;;;4980563;28;20868;-85
2021/12/31 05:50:05;;;;;;;192.83;182.17;;;;;;;;;;4980914;28;20463;-86
2021/12/31 05:52:34;;;;;;;252.80;233.47;;;;;;;;;;4980075;28;20492;-87
2021/12/31 05:55:05;;;;;;;252.70;232.07;;;;;;;;;;4979869;28;20527;-87
2021/12/31 05:57:32;;;;;;;244.07;224.57;;;;;;;;;;4979522;28;20889;-87
2021/12/31 05:59:59;;;;;;;52.03;49.57;;;;;;;;;;4977402;28;20444;-86
2021/12/31 06:02:28;;;;;;;253.77;233.10;;;;;;;;;;4945273;28;20450;-86
2021/12/31 06:04:55;;;;;;;18.67;17.37;;;;;;;;;;4977126;28;20457;-86
2021/12/31 06:07:23;;;;;;;202.87;192.20;;;;;;;;;;4977555;28;20450;-87
2021/12/31 06:09:50;;;;;;;51.97;49.57;;;;;;;;;;4977833;28;20458;-87
2021/12/31 06:12:18;;;;;;;221.67;208.37;;;;;;;;;;4977768;28;20463;-87
2021/12/31 06:14:46;;;;;;;169.03;160.13;;;;;;;;;;4977779;28;20581;-86
2021/12/31 06:17:13;;;;;;;201.40;184.93;;;;;;;;;;4978051;28;20428;-87
2021/12/31 06:19:42;;;;;;;243.33;223.57;;;;;;;;;;4977666;28;20497;-87
2021/12/31 06:22:10;;;;;;;214.03;198.70;;;;;;;;;;4977506;28;20466;-86
2021/12/31 06:24:37;;;;;;;340.93;259.03;;;;;;;;;;4977040;28;20434;-85
2021/12/31 06:27:04;;;;;;;265.87;233.53;;;;;;;;;;4977499;28;20438;-86
2021/12/31 06:29:32;;;;;;;433.10;245.27;;;;;;;;;;4976633;28;20505;-87
2021/12/31 06:31:59;;;;;;;382.47;238.93;;;;;;;;;;4976352;28;20466;-87
2021/12/31 06:34:26;;;;;;;361.73;240.53;;;;;;;;;;4976450;28;20537;-86
2021/12/31 06:36:55;;;;;;;342.13;261.13;;;;;;;;;;4977009;28;20455;-87
2021/12/31 06:39:23;;;;;;;160.50;124.50;;;;;;;;;;4976836;28;20855;-87
2021/12/31 06:41:50;;;;;;;368.53;273.53;;;;;;;;;;4959154;28;20940;-87
2021/12/31 06:44:17;;;;;;;363.63;244.63;;;;;;;;;;4976598;28;20442;-86
2021/12/31 06:46:45;;;;;;;339.83;214.17;;;;;;;;;;4976420;28;20850;-87
2021/12/31 06:49:12;;;;;;;292.10;232.23;;;;;;;;;;4976385;28;20992;-87
2021/12/31 06:51:40;;;;;;;337.70;233.17;;;;;;;;;;4976471;28;20450;-86
2021/12/31 06:54:08;;;;;;;407.00;236.25;;;;;;;;;;4975935;28;20466;-87
2021/12/31 06:56:36;;;;;;;287.87;259.77;;;;;;;;;;4976342;28;20317;-86
2021/12/31 06:59:03;;;;;;;404.92;237.60;;;;;;;;;;4976211;28;20442;-87
2021/12/31 07:01:31;;;;;;;292.20;238.00;;;;;;;;;;4976398;28;20191;-87
2021/12/31 07:03:58;;;;;;;425.60;227.70;;;;;;;;;;4959482;28;20501;-87
2021/12/31 07:06:25;;;;;;;453.57;235.23;;;;;;;;;;4977044;28;20474;-87
2021/12/31 07:08:53;;;;;;;441.80;234.30;;;;;;;;;;4976501;28;20434;-87
2021/12/31 07:11:22;;;;;;;455.33;259.15;;;;;;;;;;4980476;28;20210;-86
2021/12/31 07:13:50;;;;;;;42.20;34.40;;;;;;;;;;4980523;28;20237;-87
2021/12/31 07:16:17;;;;;;;24.73;22.60;;;;;;;;;;4962157;28;20557;-87
2021/12/31 07:18:45;;;;;;;19.77;18.27;;;;;;;;;;4980271;28;20450;-87
2021/12/31 07:21:12;;;;;;;279.10;248.37;;;;;;;;;;4975950;28;20447;-87
2021/12/31 07:23:39;;;;;;;381.05;212.10;;;;;;;;;;4975581;28;20458;-87
2021/12/31 07:26:08;;;;;;;269.87;241.40;;;;;;;;;;4976102;28;20195;-86
2021/12/31 07:28:37;;;;;;;300.30;189.88;;;;;;;;;;4976486;28;20917;-86
2021/12/31 07:31:06;;;;;;;33.03;29.67;;;;;;;;;;4958318;28;20206;-85
2021/12/31 07:33:34;;;;;;;358.73;190.52;;;;;;;;;;4975133;28;20827;-85
2021/12/31 07:36:02;;;;;;;18.77;17.53;;;;;;;;;;4975295;28;20704;-85
2021/12/31 07:38:33;;;;;;;19.57;18.43;;;;;;;;;;4975314;28;20838;-86
2021/12/31 07:41:01;;;;;;;18.73;17.73;;;;;;;;;;4975537;28;20414;-85
2021/12/31 07:43:28;;;;;;;96.20;73.93;;;;;;;;;;4975405;28;20417;-85
2021/12/31 07:45:57;;;;;;;50.47;40.57;;;;;;;;;;4975248;28;20438;-85
2021/12/31 07:48:25;;;;;;;18.33;17.23;;;;;;;;;;4974981;28;20481;-84
2021/12/31 07:50:53;;;;;;;19.10;18.00;;;;;;;;;;4974907;28;20413;-85
2021/12/31 07:53:20;;;;;;;19.20;18.10;;;;;;;;;;4975068;28;20435;-85
2021/12/31 07:55:48;;;;;;;19.40;18.10;;;;;;;;;;4974980;28;20468;-85
2021/12/31 07:58:15;;;;;;;19.30;18.30;;;;;;;;;;4974996;28;20448;-85
2021/12/31 08:00:42;;;;;;;18.90;18.00;;;;;;;;;;4974770;28;20947;-85
2021/12/31 08:03:11;;;;;;;329.08;274.63;;;;;;;;;;4975263;28;20438;-84
2021/12/31 08:05:39;;;;;;;122.93;117.50;;;;;;;;;;4974585;28;20199;-85
2021/12/31 08:08:06;;;;;;;337.83;265.27;;;;;;;;;;4974913;28;20450;-85
2021/12/31 08:10:34;;;;;;;52.47;48.20;;;;;;;;;;4974850;28;20201;-86
2021/12/31 08:13:01;;;;;;;384.75;222.52;;;;;;;;;;4974041;28;20430;-85
2021/12/31 08:15:29;;;;;;;73.97;68.07;;;;;;;;;;4974182;28;20982;-86
2021/12/31 08:17:56;;;;;;;22.50;20.47;;;;;;;;;;4974319;28;20446;-85
2021/12/31 08:20:26;;;;;;;466.20;248.27;;;;;;;;;;4974285;28;20413;-85
2021/12/31 08:22:54;;;;;;;197.85;127.90;;;;;;;;;;4975124;28;20660;-85
2021/12/31 08:25:21;;;;;;;471.80;263.23;;;;;;;;;;4977893;28;20214;-84
2021/12/31 08:27:48;;;;;;;311.92;197.00;;;;;;;;;;4978625;28;20198;-85
2021/12/31 08:30:16;;;;;;;33.97;31.67;;;;;;;;;;4961358;28;20645;-85
2021/12/31 08:32:43;;;;;;;417.02;239.77;;;;;;;;;;4977939;28;20417;-84
2021/12/31 08:35:11;;;;;;;453.88;239.43;;;;;;;;;;4978178;28;20218;-84
2021/12/31 08:37:39;;;;;;;451.63;255.45;;;;;;;;;;4978016;28;20601;-85
2021/12/31 08:40:07;;;;;;;460.50;247.93;;;;;;;;;;4978002;28;20198;-84
2021/12/31 08:42:35;;;;;;;311.63;199.53;;;;;;;;;;4978191;28;20199;-85
2021/12/31 08:45:03;;;;;;;19.90;18.90;;;;;;;;;;4978726;28;20504;-85
2021/12/31 08:47:30;;;;;;;19.63;18.57;;;;;;;;;;4978031;28;20428;-85
2021/12/31 08:49:58;;;;;;;20.17;19.17;;;;;;;;;;4978149;28;20851;-84
2021/12/31 08:52:25;;;;;;;19.83;18.63;;;;;;;;;;4977925;28;20434;-85
2021/12/31 08:54:54;;;;;;;18.33;17.43;;;;;;;;;;4977680;28;20491;-85
2021/12/31 08:57:21;;;;;;;18.53;17.53;;;;;;;;;;4977890;28;20444;-85
2021/12/31 08:59:49;;;;;;;19.40;18.30;;;;;;;;;;4960513;28;20429;-85
2021/12/31 09:02:16;;;;;;;19.83;18.83;;;;;;;;;;4977592;28;20467;-86
2021/12/31 09:04:43;;;;;;;19.50;18.60;;;;;;;;;;4961087;28;20418;-84
2021/12/31 09:07:11;;;;;;;19.53;18.43;;;;;;;;;;4977497;28;20417;-84
2021/12/31 09:09:38;;;;;;;18.30;17.30;;;;;;;;;;4977286;28;20441;-85
2021/12/31 09:12:07;;;;;;;18.90;17.90;;;;;;;;;;4977547;28;20405;-84
2021/12/31 09:14:35;;;;;;;20.70;19.47;;;;;;;;;;4978474;28;20481;-91
2021/12/31 09:17:02;;;;;;;19.20;18.00;;;;;;;;;;4978832;28;20419;-89
2021/12/31 09:19:30;;;;;;;19.93;18.83;;;;;;;;;;4978116;28;20458;-91
2021/12/31 09:21:57;;;;;;;24.53;22.03;;;;;;;;;;4978469;28;20424;-89
2021/12/31 09:24:25;;;;;;;20.07;18.80;;;;;;;;;;4978569;28;20460;-94
2021/12/31 09:26:52;;;;;;;19.40;18.40;;;;;;;;;;4978136;28;20420;-87
2021/12/31 09:29:23;;;;;;;19.70;18.50;;;;;;;;;;4977652;28;20446;-86
2021/12/31 09:31:51;;;;;;;21.37;20.00;;;;;;;;;;4978212;28;20424;-87
2021/12/31 09:34:18;;;;;;;18.70;17.67;;;;;;;;;;4977381;28;20417;-86
2021/12/31 09:36:46;;;;;;;19.70;18.70;;;;;;;;;;4977369;28;20465;-87
2021/12/31 09:39:13;;;;;;;19.50;18.43;;;;;;;;;;4977468;28;20514;-86
2021/12/31 09:41:41;;;;;;;22.67;21.00;;;;;;;;;;4960312;28;20480;-87
2021/12/31 09:44:10;;;;;;;18.97;17.83;;;;;;;;;;4977711;28;20417;-87
2021/12/31 09:46:40;;;;;;;19.43;18.03;;;;;;;;;;4977040;28;20425;-87
2021/12/31 09:49:07;;;;;;;18.80;17.90;;;;;;;;;;4977039;28;20495;-87
2021/12/31 09:51:36;;;;;;;20.77;19.57;;;;;;;;;;4977717;28;20505;-87
2021/12/31 09:54:03;;;;;;;19.23;18.23;;;;;;;;;;4960398;28;20932;-87
2021/12/31 09:56:37;;;;;;;18.70;17.80;;;;;;;;;;4977152;28;20483;-90
2021/12/31 09:59:04;;;;;;;20.37;19.17;;;;;;;;;;4960402;28;20487;-90
2021/12/31 10:01:31;;;;;;;19.33;18.43;;;;;;;;;;4978203;28;20413;-87
2021/12/31 10:04:01;;;;;;;19.43;18.53;;;;;;;;;;4977858;28;20434;-92
2021/12/31 10:06:29;;;;;;;19.27;18.27;;;;;;;;;;4977494;28;20842;-93
2021/12/31 10:09:00;;;;;;;20.30;19.27;;;;;;;;;;4960131;28;20456;-94
2021/12/31 10:11:27;;;;;;;21.00;19.83;;;;;;;;;;4960025;28;20500;-93
2021/12/31 10:13:56;;;;;;;26.37;23.97;;;;;;;;;;4977612;28;20413;-86
2021/12/31 10:16:25;;;;;;;20.20;19.17;;;;;;;;;;4976419;28;20482;-86
2021/12/31 10:19:06;;;;;;;20.00;18.83;;;;;;;;;;4976218;28;20808;-85
2021/12/31 10:21:38;;;;;;;19.37;18.47;;;;;;;;;;4976545;28;20755;-86
2021/12/31 10:24:19;;;;;;;19.53;18.43;;;;;;;;;;4976102;28;20892;-85
2021/12/31 10:26:47;;;;;;;19.23;18.23;;;;;;;;;;4976289;28;20900;-84
2021/12/31 10:29:15;;;;;;;20.30;18.83;;;;;;;;;;4976087;28;20428;-85
2021/12/31 10:31:44;;;;;;;19.93;19.03;;;;;;;;;;4976683;28;20443;-85
2021/12/31 10:34:26;;;;;;;19.13;18.13;;;;;;;;;;4959113;28;20808;-86
2021/12/31 10:36:55;;;;;;;21.20;19.27;;;;;;;;;;4976047;28;20513;-85
2021/12/31 10:39:24;;;;;;;20.27;19.17;;;;;;;;;;4976137;28;20443;-86
2021/12/31 10:41:52;;;;;;;19.83;18.83;;;;;;;;;;4975868;28;20425;-86
2021/12/31 10:44:19;;;;;;;20.03;19.03;;;;;;;;;;4975934;28;20902;-85
2021/12/31 10:46:46;;;;;;;19.70;18.63;;;;;;;;;;4975181;28;20505;-85
2021/12/31 10:49:14;;;;;;;20.10;19.10;;;;;;;;;;4975574;28;20899;-87
2021/12/31 10:51:43;;;;;;;18.60;17.60;;;;;;;;;;4975903;28;20466;-87
2021/12/31 10:54:31;;;;;;;19.83;18.63;;;;;;;;;;4976032;28;20482;-86
2021/12/31 10:56:59;;;;;;;19.07;18.17;;;;;;;;;;4976149;28;20476;-89
2021/12/31 10:59:33;;;;;;;19.03;18.13;;;;;;;;;;4976201;28;20422;-88
2021/12/31 11:02:00;;;;;;;20.37;19.37;;;;;;;;;;4958831;28;20515;-90
2021/12/31 11:04:29;;;;;;;19.43;18.53;;;;;;;;;;4976364;28;20425;-89
2021/12/31 11:06:57;;;;;;;19.60;18.60;;;;;;;;;;4976401;28;20628;-87
2021/12/31 11:09:25;;;;;;;19.27;18.17;;;;;;;;;;4976136;28;20514;-89
2021/12/31 11:11:54;;;;;;;19.20;18.13;;;;;;;;;;4976080;28;20862;-84
2021/12/31 11:14:21;;;;;;;18.87;17.90;;;;;;;;;;4976748;28;20436;-88
2021/12/31 11:16:49;;;;;;;18.93;17.93;;;;;;;;;;4975608;28;20473;-88
2021/12/31 11:19:17;;;;;;;19.67;18.67;;;;;;;;;;4975749;28;20451;-88
2021/12/31 11:21:44;;;;;;;19.67;18.53;;;;;;;;;;4958473;28;20422;-88
2021/12/31 11:24:34;;;;;;;19.27;18.27;;;;;;;;;;4975697;28;20439;-87
2021/12/31 11:27:01;;;;;;;19.27;18.07;;;;;;;;;;4975311;28;20953;-87
2021/12/31 11:29:37;;;;;;;19.23;18.03;;;;;;;;;;4975571;28;20450;-89
2021/12/31 11:32:05;;;;;;;18.60;17.33;;;;;;;;;;4976000;28;20497;-89
2021/12/31 11:34:32;;;;;;;19.20;18.20;;;;;;;;;;4975791;28;20440;-88
2021/12/31 11:37:02;;;;;;;18.40;17.50;;;;;;;;;;4975150;28;20486;-88
2021/12/31 11:39:30;;;;;;;18.27;17.20;;;;;;;;;;4975668;28;20425;-89
2021/12/31 11:42:00;;;;;;;18.17;17.20;;;;;;;;;;4975315;28;20822;-86
2021/12/31 11:44:28;;;;;;;18.90;18.00;;;;;;;;;;4975326;28;20458;-87
2021/12/31 11:47:12;;;;;;;18.00;17.10;;;;;;;;;;4958345;28;20454;-87
2021/12/31 11:49:39;;;;;;;18.97;17.97;;;;;;;;;;4958003;28;20807;-85
2021/12/31 11:52:08;;;;;;;19.80;18.80;;;;;;;;;;4957575;28;20425;-85
2021/12/31 11:54:37;;;;;;;19.30;18.40;;;;;;;;;;4975148;28;20442;-87
2021/12/31 11:57:07;;;;;;;19.93;18.90;;;;;;;;;;4974659;28;20476;-88
2021/12/31 11:59:35;;;;;;;19.90;18.93;;;;;;;;;;4974936;28;20438;-89
2021/12/31 12:02:23;;;;;;;18.73;17.83;;;;;;;;;;4975400;28;20832;-88
2021/12/31 12:05:08;;;;;;;19.90;18.77;;;;;;;;;;4969315;28;20430;-90
2021/12/31 12:07:36;;;;;;;19.87;18.67;;;;;;;;;;4974260;28;20554;-90
2021/12/31 12:10:21;;;;;;;19.00;18.00;;;;;;;;;;4958091;28;20454;-89
2021/12/31 12:12:53;;;;;;;18.47;17.47;;;;;;;;;;4975183;28;20498;-96
2021/12/31 12:15:30;;;;;;;20.00;19.00;;;;;;;;;;4975552;28;20469;-91
2021/12/31 12:17:58;;;;;;;18.90;17.90;;;;;;;;;;4974750;28;20501;-93
2021/12/31 12:20:33;;;;;;;18.93;17.93;;;;;;;;;;4975075;28;20410;-93
2021/12/31 12:23:02;;;;;;;19.30;18.40;;;;;;;;;;4975329;28;20408;-93
2021/12/31 12:25:31;;;;;;;19.77;18.70;;;;;;;;;;4957827;28;20493;-93
2021/12/31 12:28:02;;;;;;;19.70;18.43;;;;;;;;;;4975446;28;20809;-93
2021/12/31 12:30:30;;;;;;;20.03;18.83;;;;;;;;;;4975272;28;20447;-92
2021/12/31 12:33:08;;;;;;;19.80;18.47;;;;;;;;;;4975329;28;20454;-93
2021/12/31 12:35:37;;;;;;;19.90;18.70;;;;;;;;;;4959622;28;20521;-92
2021/12/31 12:38:05;;;;;;;19.80;18.80;;;;;;;;;;4957712;28;20509;-92
2021/12/31 12:40:37;;;;;;;19.77;18.70;;;;;;;;;;4975171;28;20873;-92
2021/12/31 12:43:09;;;;;;;20.10;18.87;;;;;;;;;;4974827;28;20497;-93
2021/12/31 12:45:39;;;;;;;21.20;20.07;;;;;;;;;;4975079;28;20513;-91
2021/12/31 12:48:07;;;;;;;19.33;18.37;;;;;;;;;;4975346;28;20485;-93
2021/12/31 12:50:34;;;;;;;20.00;19.00;;;;;;;;;;4974926;28;20865;-94
2021/12/31 12:53:02;;;;;;;20.47;19.40;;;;;;;;;;4957577;28;20454;-92
2021/12/31 12:55:30;;;;;;;19.77;18.67;;;;;;;;;;4958206;28;20514;-93
2021/12/31 12:57:58;;;;;;;21.93;20.63;;;;;;;;;;4974929;28;20490;-93
2021/12/31 13:00:40;;;;;;;20.27;19.00;;;;;;;;;;4974982;28;20487;-93
2021/12/31 13:03:09;;;;;;;20.67;19.67;;;;;;;;;;4972502;28;20435;-92
2021/12/31 13:05:37;;;;;;;20.40;19.30;;;;;;;;;;4974916;28;20449;-94
2021/12/31 13:08:05;;;;;;;21.33;20.23;;;;;;;;;;4974650;28;20883;-88
2021/12/31 13:10:34;;;;;;;20.20;19.10;;;;;;;;;;4978062;28;20481;-92
2021/12/31 13:13:02;;;;;;;21.47;20.33;;;;;;;;;;4978251;28;20855;-92
2021/12/31 13:15:29;;;;;;;21.93;20.70;;;;;;;;;;4978456;28;20428;-92
2021/12/31 13:17:57;;;;;;;20.20;19.20;;;;;;;;;;4978171;28;20453;-92
2021/12/31 13:20:27;;;;;;;20.80;19.70;;;;;;;;;;4978217;28;20466;-92
2021/12/31 13:22:58;;;;;;;20.40;19.30;;;;;;;;;;4978070;28;20898;-92
2021/12/31 13:25:42;;;;;;;21.33;20.13;;;;;;;;;;4977879;28;20406;-91
2021/12/31 13:28:14;;;;;;;19.90;18.80;;;;;;;;;;4978116;28;20433;-92
2021/12/31 13:30:51;;;;;;;19.30;18.30;;;;;;;;;;4978157;28;20417;-91
2021/12/31 13:33:25;;;;;;;21.37;20.27;;;;;;;;;;4960576;28;20445;-92
2021/12/31 13:36:14;;;;;;;21.00;19.80;;;;;;;;;;4978171;28;20453;-92
2021/12/31 13:38:58;;;;;;;20.07;19.07;;;;;;;;;;4977889;28;20421;-93
2021/12/31 13:41:25;;;;;;;19.33;18.33;;;;;;;;;;4977824;28;20532;-91
2021/12/31 13:43:53;;;;;;;19.97;18.93;;;;;;;;;;4977830;28;20437;-90
2021/12/31 13:46:21;;;;;;;19.40;18.40;;;;;;;;;;4977733;28;20446;-88
2021/12/31 13:48:48;;;;;;;20.70;19.60;;;;;;;;;;4977528;28;20541;-88
2021/12/31 13:51:30;;;;;;;20.47;19.17;;;;;;;;;;4960578;28;20428;-91
2021/12/31 13:53:57;;;;;;;20.30;19.20;;;;;;;;;;4978072;28;20565;-91
2021/12/31 13:56:35;;;;;;;20.57;19.37;;;;;;;;;;4977682;28;20460;-90
2021/12/31 13:59:16;;;;;;;20.70;19.57;;;;;;;;;;4977574;28;20424;-92
2021/12/31 14:01:58;;;;;;;21.00;19.80;;;;;;;;;;4977515;28;20435;-94
2021/12/31 14:04:26;;;;;;;20.63;19.53;;;;;;;;;;4977058;28;20453;-92
2021/12/31 14:07:00;;;;;;;20.87;19.57;;;;;;;;;;4977659;28;20454;-93
2021/12/31 14:09:28;;;;;;;20.50;19.20;;;;;;;;;;4977254;28;20437;-92
2021/12/31 14:11:56;;;;;;;20.40;19.10;;;;;;;;;;4977131;28;20485;-93
2021/12/31 14:14:24;;;;;;;20.00;18.90;;;;;;;;;;4977820;28;20417;-93
2021/12/31 14:16:53;;;;;;;19.47;18.37;;;;;;;;;;4960515;28;20460;-93
2021/12/31 14:19:21;;;;;;;19.40;18.30;;;;;;;;;;4977360;28;20455;-92
2021/12/31 14:21:48;;;;;;;21.17;19.60;;;;;;;;;;4976060;28;20434;-94
2021/12/31 14:27:17;;;;;;;20.23;19.07;;;;;;;;;;5040758;23;20564;-91
2021/12/31 14:29:45;;;;;;;20.80;19.70;;;;;;;;;;4979364;28;20453;-93